Terminal Aerodrome Forecast
Issued by NWS Billings, MT

Home | Current Version | Previous Version | Text Only | Print | Product List | Glossary On
Versions: 1 2 3 4 5 6 7 8 9 10 11 12 13 14 15 16 17 18 19 20 21 22 23 24 25 26 27 28 29 30 31 32 33 34 35
000
FTUS45 KBYZ 070535
TAFSHR
TAF
KSHR 070535Z 0706/0806 VRB04KT P6SM SCT200
     FM072000 VRB05KT P6SM VCTS SCT050CB BKN150
     FM080300 33010KT 6SM FU SCT060 BKN100=

USA.gov is the U.S. government's official web portal to all federal, state and local government web resources and services.